Time;durP1;ratioP1;P1;durP2;ratioP2;P2;SDS_P1;SDS_P2;PMS_P1;PMS_P2;Temp;Humidity;BMP_temperature;BMP_pressure;BME280_temperature;BME280_humidity;BME280_pressure;Samples;Min_cycle;Max_cycle;Signal;HPM_P1;HPM_P2
2021/03/08 00:02:07;;;;;;;53.38;26.30;;;3.10;82.50;;;;;;5071651;28;20016;-92
2021/03/08 00:04:32;;;;;;;53.58;26.58;;;3.10;82.50;;;;;;5075513;28;20119;-93
2021/03/08 00:06:58;;;;;;;55.33;26.25;;;3.10;82.50;;;;;;5081564;28;20016;-93
2021/03/08 00:09:23;;;;;;;51.97;26.35;;;3.10;82.60;;;;;;5082172;28;20028;-93
2021/03/08 00:11:49;;;;;;;54.17;26.15;;;3.10;82.70;;;;;;5076638;28;20024;-92
2021/03/08 00:14:14;;;;;;;51.50;24.35;;;3.10;82.70;;;;;;5076709;28;20016;-94
2021/03/08 00:16:40;;;;;;;59.65;26.35;;;3.00;82.70;;;;;;5082338;28;20028;-93
2021/03/08 00:19:06;;;;;;;53.92;27.65;;;3.10;82.90;;;;;;5080202;28;20027;-93
2021/03/08 00:21:32;;;;;;;52.67;26.60;;;3.00;83.00;;;;;;5079390;28;20028;-93
2021/03/08 00:23:57;;;;;;;58.53;27.08;;;3.00;83.10;;;;;;5078870;28;20047;-93
2021/03/08 00:26:23;;;;;;;58.70;26.52;;;3.00;83.20;;;;;;5076691;28;20227;-93
2021/03/08 00:28:48;;;;;;;53.47;25.13;;;3.00;83.30;;;;;;5082422;28;20073;-92
2021/03/08 00:31:14;;;;;;;51.47;25.17;;;3.00;83.40;;;;;;5088300;28;20016;-94
2021/03/08 00:33:39;;;;;;;57.00;26.73;;;3.00;83.40;;;;;;5079532;28;20024;-93
2021/03/08 00:36:05;;;;;;;57.53;27.48;;;3.00;83.40;;;;;;5082647;28;20023;-93
2021/03/08 00:38:31;;;;;;;60.45;27.42;;;3.00;83.50;;;;;;5079282;28;20024;-93
2021/03/08 00:40:56;;;;;;;62.88;27.83;;;3.00;83.60;;;;;;5079387;28;20020;-93
2021/03/08 00:43:22;;;;;;;59.10;28.30;;;3.00;83.80;;;;;;5082192;28;20028;-94
2021/03/08 00:45:47;;;;;;;64.18;28.85;;;3.00;83.90;;;;;;5078467;28;20024;-93
2021/03/08 00:48:13;;;;;;;58.95;29.02;;;3.10;84.10;;;;;;5081170;28;20502;-93
2021/03/08 00:50:38;;;;;;;58.83;29.30;;;3.10;84.20;;;;;;5081875;28;20085;-93
2021/03/08 00:53:04;;;;;;;58.75;28.00;;;3.10;84.30;;;;;;5082194;28;20031;-92
2021/03/08 00:55:30;;;;;;;62.17;28.45;;;3.10;84.30;;;;;;5071608;28;20422;-93
2021/03/08 00:57:56;;;;;;;64.75;30.77;;;3.10;84.30;;;;;;5074591;28;20017;-93
2021/03/08 01:00:26;;;;;;;66.15;28.73;;;3.20;84.40;;;;;;5074926;28;20494;-94
2021/03/08 01:02:52;;;;;;;65.55;29.73;;;3.10;84.30;;;;;;5072709;28;20033;-94
2021/03/08 01:05:21;;;;;;;64.47;29.70;;;3.10;84.30;;;;;;5081106;28;20268;-93
2021/03/08 01:07:46;;;;;;;64.57;30.48;;;3.20;84.50;;;;;;5081063;28;20028;-93
2021/03/08 01:10:19;;;;;;;70.18;31.38;;;3.10;84.40;;;;;;5081613;28;20024;-92
2021/03/08 01:12:45;;;;;;;70.85;30.67;;;3.10;84.70;;;;;;5077660;28;20162;-92
2021/03/08 01:15:11;;;;;;;69.22;31.13;;;3.10;84.60;;;;;;5080791;28;20055;-93
2021/03/08 01:17:38;;;;;;;75.20;34.83;;;3.10;84.70;;;;;;5100399;28;20109;-93
2021/03/08 01:20:06;;;;;;;67.10;31.48;;;3.00;84.70;;;;;;5099174;28;20034;-93
2021/03/08 01:22:32;;;;;;;70.07;32.65;;;3.00;84.70;;;;;;5098457;28;20036;-94
2021/03/08 01:24:57;;;;;;;69.40;31.88;;;3.00;84.90;;;;;;5079930;28;20081;-94
2021/03/08 01:27:23;;;;;;;67.25;32.00;;;2.90;85.00;;;;;;5097912;28;20028;-94
2021/03/08 01:29:48;;;;;;;70.78;30.83;;;3.00;85.10;;;;;;5071271;28;20034;-93
2021/03/08 01:32:14;;;;;;;68.43;32.13;;;2.90;85.10;;;;;;5093320;28;20046;-93
2021/03/08 01:34:39;;;;;;;67.90;30.23;;;2.90;85.20;;;;;;5073286;28;20033;-93
2021/03/08 01:37:05;;;;;;;67.63;32.22;;;2.90;85.30;;;;;;5094585;28;20039;-94
2021/03/08 01:39:30;;;;;;;68.78;32.80;;;2.90;85.30;;;;;;5074887;28;20016;-93
2021/03/08 01:41:56;;;;;;;68.18;29.98;;;2.90;85.40;;;;;;5087076;28;20020;-94
2021/03/08 01:44:22;;;;;;;70.53;32.70;;;2.90;85.40;;;;;;5092253;28;20064;-93
2021/03/08 01:46:48;;;;;;;66.63;30.77;;;2.80;85.40;;;;;;5097708;28;20047;-94
2021/03/08 01:49:14;;;;;;;70.63;31.80;;;2.80;85.50;;;;;;5072869;28;20031;-95
2021/03/08 01:51:41;;;;;;;69.07;32.78;;;2.80;85.50;;;;;;5093591;28;20531;-93
2021/03/08 01:54:07;;;;;;;69.68;32.85;;;2.80;85.70;;;;;;5095396;28;20965;-94
2021/03/08 01:56:32;;;;;;;72.10;31.10;;;2.80;85.70;;;;;;5098072;28;20040;-94
2021/03/08 01:58:58;;;;;;;70.90;32.58;;;2.80;86.40;;;;;;5077571;28;20038;-95
2021/03/08 02:01:24;;;;;;;73.57;32.58;;;2.80;85.80;;;;;;5079323;28;20016;-93
2021/03/08 02:03:49;;;;;;;72.97;33.70;;;2.80;86.00;;;;;;5079674;28;20036;-94
2021/03/08 02:06:15;;;;;;;74.05;33.65;;;2.80;86.10;;;;;;5079801;28;20490;-93
2021/03/08 02:08:40;;;;;;;78.68;32.95;;;2.90;86.30;;;;;;5079576;28;20055;-93
2021/03/08 02:11:06;;;;;;;69.18;32.58;;;2.90;86.30;;;;;;5071736;28;20104;-95
2021/03/08 02:13:53;;;;;;;73.65;33.10;;;2.90;86.30;;;;;;5086690;28;20097;-94
2021/03/08 02:16:22;;;;;;;77.32;31.17;;;2.90;86.20;;;;;;5098363;28;20068;-93
2021/03/08 02:18:56;;;;;;;74.20;31.75;;;2.90;86.10;;;;;;5098425;28;20387;-92
2021/03/08 02:21:33;;;;;;;75.47;34.00;;;2.90;86.20;;;;;;5076420;28;20020;-94
2021/03/08 02:24:26;;;;;;;64.07;29.35;;;2.90;86.40;;;;;;5095700;28;20499;-94
2021/03/08 02:27:13;;;;;;;62.88;28.95;;;2.90;86.50;;;;;;5080323;28;20020;-93
2021/03/08 02:30:10;;;;;;;71.35;31.77;;;2.90;86.40;;;;;;5074896;28;20032;-93
2021/03/08 02:32:45;;;;;;;70.65;31.10;;;2.90;86.50;;;;;;5096990;28;20476;-93
2021/03/08 02:35:26;;;;;;;69.50;32.28;;;2.90;86.50;;;;;;5096135;28;20544;-93
2021/03/08 02:38:06;;;;;;;68.97;31.98;;;2.90;86.70;;;;;;5094585;28;20032;-93
2021/03/08 02:40:33;;;;;;;72.78;33.33;;;2.90;86.70;;;;;;5077957;28;20111;-92
2021/03/08 02:43:01;;;;;;;73.55;32.42;;;2.90;86.80;;;;;;5081170;28;20024;-93
2021/03/08 02:45:29;;;;;;;73.65;32.92;;;2.90;86.90;;;;;;5068047;28;20174;-93
2021/03/08 02:47:57;;;;;;;70.95;33.33;;;2.90;87.00;;;;;;5072254;28;22671;-94
2021/03/08 02:50:27;;;;;;;71.05;33.42;;;2.90;87.10;;;;;;5094729;28;20058;-93
2021/03/08 02:52:58;;;;;;;70.38;33.15;;;2.90;87.10;;;;;;5092141;28;20026;-92
2021/03/08 02:55:29;;;;;;;66.45;32.42;;;2.90;87.20;;;;;;5096108;28;20063;-92
2021/03/08 02:57:56;;;;;;;65.90;31.67;;;2.90;87.30;;;;;;5097459;28;20054;-93
2021/03/08 03:00:23;;;;;;;71.68;32.40;;;2.90;87.30;;;;;;5097761;28;20017;-93
2021/03/08 03:02:50;;;;;;;70.78;31.90;;;2.90;87.40;;;;;;5078728;28;20032;-93
2021/03/08 03:05:17;;;;;;;72.75;32.60;;;2.90;87.50;;;;;;5097640;28;20050;-94
2021/03/08 03:07:46;;;;;;;70.63;33.22;;;2.90;87.60;;;;;;5071244;28;20541;-94
2021/03/08 03:10:13;;;;;;;68.63;31.55;;;2.90;87.70;;;;;;5088877;28;20028;-94
2021/03/08 03:12:40;;;;;;;63.85;31.58;;;2.90;87.60;;;;;;5096181;28;20069;-93
2021/03/08 03:15:08;;;;;;;75.03;32.05;;;2.90;87.50;;;;;;5096365;28;20012;-93
2021/03/08 03:17:37;;;;;;;73.00;32.92;;;2.80;87.50;;;;;;5070085;28;20048;-93
2021/03/08 03:20:07;;;;;;;66.85;31.40;;;2.80;87.70;;;;;;5085481;28;20034;-92
2021/03/08 03:22:33;;;;;;;72.78;33.28;;;2.70;87.70;;;;;;5074743;28;20063;-93
2021/03/08 03:25:00;;;;;;;69.07;31.67;;;2.70;87.70;;;;;;5070273;28;20099;-93
2021/03/08 03:27:27;;;;;;;75.88;33.35;;;2.70;87.80;;;;;;5078630;28;20392;-93
2021/03/08 03:29:54;;;;;;;74.97;32.55;;;2.60;87.90;;;;;;5073947;28;20025;-94
2021/03/08 03:32:21;;;;;;;73.57;33.60;;;2.60;88.10;;;;;;5077748;28;20023;-94
2021/03/08 03:34:48;;;;;;;74.45;33.05;;;2.60;88.30;;;;;;5062235;28;20028;-94
2021/03/08 03:37:17;;;;;;;68.60;31.63;;;2.50;88.40;;;;;;5072306;28;20058;-94
2021/03/08 03:39:43;;;;;;;75.78;32.50;;;2.60;88.50;;;;;;5077344;28;20024;-93
2021/03/08 03:42:09;;;;;;;69.45;31.92;;;2.50;88.60;;;;;;5094390;28;20034;-94
2021/03/08 03:44:35;;;;;;;68.75;32.30;;;2.50;88.70;;;;;;5072704;28;20546;-93
2021/03/08 03:47:01;;;;;;;75.93;33.75;;;2.60;88.90;;;;;;5078253;28;20051;-94
2021/03/08 03:49:27;;;;;;;73.32;32.72;;;2.50;88.90;;;;;;5072584;28;20029;-94
2021/03/08 03:51:53;;;;;;;76.55;32.38;;;2.60;89.00;;;;;;5078176;28;20026;-94
2021/03/08 03:54:18;;;;;;;71.95;32.35;;;2.60;89.00;;;;;;5081182;28;20110;-93
2021/03/08 03:56:51;;;;;;;72.03;31.60;;;2.70;89.10;;;;;;5074830;28;20032;-94
2021/03/08 03:59:25;;;;;;;67.97;31.52;;;2.70;89.10;;;;;;5077393;28;20028;-94
2021/03/08 04:02:01;;;;;;;74.53;33.60;;;2.70;89.20;;;;;;5092535;28;20040;-94
2021/03/08 04:04:35;;;;;;;69.47;30.02;;;2.70;89.20;;;;;;5067197;28;20058;-93
2021/03/08 04:07:04;;;;;;;77.07;33.90;;;2.80;89.40;;;;;;5069982;28;20017;-94
2021/03/08 04:09:30;;;;;;;68.32;31.40;;;2.80;89.30;;;;;;5093124;28;20036;-94
2021/03/08 04:11:59;;;;;;;64.95;30.20;;;2.80;89.30;;;;;;5075994;28;20011;-95
2021/03/08 04:14:26;;;;;;;67.90;32.38;;;2.80;89.30;;;;;;5081909;28;20118;-93
2021/03/08 04:16:55;;;;;;;67.65;30.02;;;2.90;89.40;;;;;;5078394;28;20016;-93
2021/03/08 04:19:24;;;;;;;74.18;33.67;;;2.90;89.50;;;;;;5066724;28;20074;-94
2021/03/08 04:21:53;;;;;;;70.75;34.03;;;2.90;89.50;;;;;;5071081;28;20054;-94
2021/03/08 04:24:20;;;;;;;70.30;31.48;;;2.90;89.40;;;;;;5073365;28;20028;-93
2021/03/08 04:26:47;;;;;;;71.53;33.75;;;2.90;89.40;;;;;;5072309;28;20099;-95
2021/03/08 04:29:14;;;;;;;66.38;32.97;;;2.90;89.30;;;;;;5060671;28;20020;-94
2021/03/08 04:31:40;;;;;;;70.68;32.03;;;3.00;90.00;;;;;;5069667;28;20027;-94
2021/03/08 04:34:07;;;;;;;65.80;31.40;;;3.00;89.30;;;;;;5090662;28;20025;-94
2021/03/08 04:36:33;;;;;;;72.53;33.83;;;3.00;89.30;;;;;;5082797;28;20053;-94
2021/03/08 04:39:01;;;;;;;71.82;33.53;;;3.10;89.40;;;;;;5095040;28;20099;-93
2021/03/08 04:41:29;;;;;;;67.10;31.42;;;3.10;89.40;;;;;;5074987;28;20028;-95
2021/03/08 04:43:55;;;;;;;81.88;35.20;;;3.10;89.50;;;;;;5067527;28;20032;-93
2021/03/08 04:46:21;;;;;;;66.90;31.90;;;3.20;89.50;;;;;;5077643;28;20029;-92
2021/03/08 04:48:48;;;;;;;68.28;31.85;;;3.20;89.50;;;;;;5078653;28;20124;-93
2021/03/08 04:51:15;;;;;;;72.70;33.22;;;3.20;89.50;;;;;;5071595;28;20027;-92
2021/03/08 04:53:41;;;;;;;69.03;33.78;;;3.20;89.50;;;;;;5063856;28;20127;-93
2021/03/08 04:56:07;;;;;;;68.47;32.97;;;3.20;89.40;;;;;;5072576;28;20075;-93
2021/03/08 04:58:34;;;;;;;65.70;30.27;;;3.20;89.90;;;;;;5081810;28;20051;-92
2021/03/08 05:00:59;;;;;;;67.18;32.97;;;3.20;89.40;;;;;;5098694;28;20035;-94
2021/03/08 05:03:27;;;;;;;73.65;33.67;;;3.20;89.50;;;;;;5094749;28;20043;-93
2021/03/08 05:05:55;;;;;;;65.22;31.42;;;3.20;89.50;;;;;;5097978;28;20020;-93
2021/03/08 05:08:24;;;;;;;64.93;32.33;;;3.30;89.50;;;;;;5092405;28;20031;-93
2021/03/08 05:10:51;;;;;;;70.15;34.13;;;3.20;89.40;;;;;;5077020;28;20046;-93
2021/03/08 05:13:19;;;;;;;65.97;32.35;;;3.30;89.40;;;;;;5090871;28;20023;-92
2021/03/08 05:15:45;;;;;;;69.60;32.95;;;3.30;89.40;;;;;;5080623;28;20024;-93
2021/03/08 05:18:12;;;;;;;69.25;32.53;;;3.30;89.40;;;;;;5063207;28;20020;-92
2021/03/08 05:20:39;;;;;;;66.70;33.22;;;3.30;89.40;;;;;;5093276;28;20487;-93
2021/03/08 05:23:05;;;;;;;76.45;34.33;;;3.30;89.30;;;;;;5068615;28;20028;-93
2021/03/08 05:25:32;;;;;;;67.63;32.58;;;3.30;89.30;;;;;;5085421;28;20047;-93
2021/03/08 05:28:00;;;;;;;69.38;32.80;;;3.30;89.30;;;;;;5083555;28;20105;-93
2021/03/08 05:30:27;;;;;;;72.00;33.78;;;3.30;89.30;;;;;;5042276;23;20061;-94
2021/03/08 05:33:02;;;;;;;73.60;34.42;;;3.40;89.30;;;;;;5038540;28;20025;-93
2021/03/08 05:35:29;;;;;;;66.80;32.92;;;3.40;89.30;;;;;;5031460;28;20509;-92
2021/03/08 05:37:56;;;;;;;68.55;33.22;;;3.40;89.30;;;;;;5029310;28;20053;-92
2021/03/08 05:40:41;;;;;;;72.07;33.30;;;3.40;89.30;;;;;;5033524;28;20026;-93
2021/03/08 05:43:10;;;;;;;66.53;32.60;;;3.40;89.30;;;;;;5039040;28;20018;-93
2021/03/08 05:45:40;;;;;;;75.10;33.92;;;3.40;89.30;;;;;;5034587;28;20490;-92
2021/03/08 05:48:23;;;;;;;68.85;31.70;;;3.40;89.40;;;;;;5033555;28;20552;-94
2021/03/08 05:51:19;;;;;;;66.55;31.42;;;3.40;89.30;;;;;;5026989;28;20025;-93
2021/03/08 05:53:53;;;;;;;59.72;30.52;;;3.40;89.20;;;;;;5032564;28;20034;-95
2021/03/08 05:56:57;;;;;;;67.03;32.42;;;3.40;89.20;;;;;;5017531;28;20382;-95
2021/03/08 05:59:25;;;;;;;;;;;3.40;89.10;;;;;;5035112;28;20037;-95
2021/03/08 06:02:03;;;;;;;64.22;29.65;;;3.40;89.10;;;;;;5027395;28;19917;-95
2021/03/08 06:05:10;;;;;;;61.95;30.10;;;3.40;89.00;;;;;;5027987;28;20366;-94
2021/03/08 06:07:42;;;;;;;69.22;30.88;;;3.40;88.90;;;;;;5031992;28;20078;-93
2021/03/08 06:10:10;;;;;;;64.28;30.63;;;3.40;88.80;;;;;;5031313;28;20022;-94
2021/03/08 06:12:37;;;;;;;65.10;31.35;;;3.40;88.80;;;;;;5024906;28;20032;-93
2021/03/08 06:15:08;;;;;;;64.18;30.33;;;3.40;88.80;;;;;;5034349;28;20034;-94
2021/03/08 06:17:34;;;;;;;61.70;30.52;;;3.40;88.80;;;;;;5034050;28;20434;-92
2021/03/08 06:20:01;;;;;;;66.40;30.92;;;3.40;88.80;;;;;;5029527;28;20105;-94
2021/03/08 06:22:28;;;;;;;64.28;31.13;;;3.40;88.90;;;;;;5017498;28;20040;-93
2021/03/08 06:24:55;;;;;;;67.55;32.50;;;3.50;88.90;;;;;;5021895;28;20080;-94
2021/03/08 06:27:22;;;;;;;67.40;32.13;;;3.50;88.90;;;;;;5019748;28;20080;-94
2021/03/08 06:29:47;;;;;;;67.10;31.10;;;3.50;88.80;;;;;;5037420;28;20054;-94
2021/03/08 06:32:13;;;;;;;62.10;30.02;;;3.50;88.80;;;;;;5017435;28;20136;-94
2021/03/08 06:34:40;;;;;;;60.45;29.92;;;3.50;88.80;;;;;;5016101;28;20057;-94
2021/03/08 06:37:07;;;;;;;61.25;30.80;;;3.50;88.70;;;;;;5019631;28;20022;-94
2021/03/08 06:39:51;;;;;;;59.58;30.23;;;3.50;88.70;;;;;;5032144;28;20071;-95
2021/03/08 06:42:17;;;;;;;65.93;30.42;;;3.50;88.60;;;;;;5016290;28;20045;-94
2021/03/08 06:44:47;;;;;;;66.18;31.67;;;3.50;88.60;;;;;;5025858;28;20056;-95
2021/03/08 06:47:14;;;;;;;63.47;31.13;;;3.50;88.60;;;;;;5033660;28;20393;-94
2021/03/08 06:49:39;;;;;;;65.75;30.73;;;3.50;88.60;;;;;;5033737;28;20075;-95
2021/03/08 06:52:09;;;;;;;60.20;30.05;;;3.50;88.50;;;;;;5029869;28;20549;-94
2021/03/08 06:54:39;;;;;;;62.63;30.85;;;3.50;88.50;;;;;;5033241;28;20547;-95
2021/03/08 06:57:26;;;;;;;60.53;30.02;;;3.50;88.50;;;;;;5035011;28;20065;-94
2021/03/08 06:59:56;;;;;;;65.00;31.38;;;3.60;88.40;;;;;;5020230;28;20381;-95
2021/03/08 07:02:41;;;;;;;66.80;31.58;;;3.60;88.40;;;;;;5029244;28;20033;-95
2021/03/08 07:05:12;;;;;;;68.00;31.85;;;3.60;88.40;;;;;;5022108;28;20120;-94
2021/03/08 07:07:48;;;;;;;67.03;31.17;;;3.60;88.40;;;;;;5016383;28;20028;-95
2021/03/08 07:10:15;;;;;;;61.50;30.58;;;3.60;88.30;;;;;;5018369;28;20167;-94
2021/03/08 07:12:48;;;;;;;61.60;30.63;;;3.60;88.30;;;;;;5019714;28;20033;-93
2021/03/08 07:15:14;;;;;;;60.22;29.95;;;3.70;88.30;;;;;;5021085;28;20013;-95
2021/03/08 07:17:40;;;;;;;66.68;32.20;;;3.70;88.30;;;;;;5043706;28;20032;-93
2021/03/08 07:20:08;;;;;;;68.50;31.85;;;3.70;88.20;;;;;;5022282;28;20378;-94
2021/03/08 07:22:51;;;;;;;61.97;30.98;;;3.80;88.20;;;;;;5029851;28;20489;-94
2021/03/08 07:25:23;;;;;;;64.60;32.03;;;3.80;88.10;;;;;;5013205;28;20045;-92
2021/03/08 07:27:53;;;;;;;66.03;32.58;;;3.80;88.10;;;;;;5019166;28;20032;-93
2021/03/08 07:30:27;;;;;;;69.28;32.15;;;3.80;88.00;;;;;;5027305;28;20056;-93
2021/03/08 07:32:58;;;;;;;63.90;32.28;;;3.90;88.00;;;;;;5033212;28;20105;-94
2021/03/08 07:35:35;;;;;;;68.10;33.75;;;3.90;88.00;;;;;;5032515;28;20025;-93
2021/03/08 07:38:02;;;;;;;58.45;30.38;;;4.00;87.90;;;;;;5015270;28;20065;-93
2021/03/08 07:40:28;;;;;;;69.68;32.53;;;4.00;87.70;;;;;;5030611;28;20029;-93
2021/03/08 07:42:54;;;;;;;67.70;32.95;;;4.00;87.70;;;;;;5032986;28;20037;-93
2021/03/08 07:45:23;;;;;;;60.75;29.90;;;4.00;87.60;;;;;;5029147;28;21658;-94
2021/03/08 07:48:07;;;;;;;68.00;33.65;;;4.10;87.60;;;;;;5028860;28;20092;-94
2021/03/08 07:50:33;;;;;;;68.95;32.72;;;4.10;87.50;;;;;;5032594;28;20079;-94
2021/03/08 07:52:59;;;;;;;65.47;32.72;;;4.20;87.50;;;;;;5025911;28;20022;-93
2021/03/08 07:55:35;;;;;;;68.18;33.25;;;4.20;87.30;;;;;;5013564;28;20068;-94
2021/03/08 07:58:02;;;;;;;61.35;30.48;;;4.30;87.30;;;;;;5023708;28;20061;-95
2021/03/08 08:00:30;;;;;;;61.25;30.17;;;4.20;87.20;;;;;;5031102;28;20521;-93
2021/03/08 08:02:57;;;;;;;63.88;30.17;;;4.30;87.30;;;;;;5034170;28;20037;-94
2021/03/08 08:05:22;;;;;;;58.35;30.55;;;4.30;87.20;;;;;;5016040;28;20045;-94
2021/03/08 08:07:50;;;;;;;59.30;31.35;;;4.40;87.10;;;;;;5029021;28;20023;-95
2021/03/08 08:10:18;;;;;;;62.40;31.67;;;4.40;86.90;;;;;;5035957;28;20052;-93
2021/03/08 08:12:46;;;;;;;55.33;29.48;;;4.40;86.90;;;;;;5015660;28;20029;-94
2021/03/08 08:15:15;;;;;;;61.63;30.10;;;4.50;86.90;;;;;;5033083;28;20380;-94
2021/03/08 08:17:41;;;;;;;61.15;30.80;;;4.50;86.70;;;;;;5026905;28;20025;-96
2021/03/08 08:20:09;;;;;;;63.22;31.13;;;4.50;86.60;;;;;;5027846;28;20025;-93
2021/03/08 08:22:35;;;;;;;64.05;32.50;;;4.60;86.60;;;;;;5023211;28;20033;-94
2021/03/08 08:25:03;;;;;;;58.17;31.08;;;4.60;86.40;;;;;;5049632;28;20037;-94
2021/03/08 08:27:32;;;;;;;64.78;31.60;;;4.70;86.40;;;;;;5031842;28;20026;-94
2021/03/08 08:30:02;;;;;;;63.35;31.60;;;4.70;86.10;;;;;;5027060;28;20064;-94
2021/03/08 08:32:57;;;;;;;61.85;30.42;;;4.70;86.00;;;;;;5032846;28;20110;-94
2021/03/08 08:35:25;;;;;;;70.68;34.17;;;4.80;85.80;;;;;;5036652;28;20029;-94
2021/03/08 08:38:09;;;;;;;61.95;32.80;;;4.80;85.90;;;;;;5032578;28;20017;-93
2021/03/08 08:40:36;;;;;;;67.35;33.42;;;4.80;85.70;;;;;;5033205;28;20025;-92
2021/03/08 08:43:17;;;;;;;65.90;34.63;;;4.80;85.60;;;;;;5034507;28;20025;-94
2021/03/08 08:45:47;;;;;;;60.28;31.25;;;4.90;85.60;;;;;;5036409;28;20114;-93
2021/03/08 08:48:12;;;;;;;64.38;32.47;;;5.00;85.70;;;;;;5035670;28;20025;-93
2021/03/08 08:50:46;;;;;;;65.97;34.45;;;5.00;85.50;;;;;;5041176;28;20037;-94
2021/03/08 08:53:12;;;;;;;61.85;32.10;;;5.10;85.60;;;;;;5022997;28;20022;-95
2021/03/08 08:55:38;;;;;;;65.85;32.03;;;5.20;85.40;;;;;;5016633;28;20034;-93
2021/03/08 08:58:16;;;;;;;68.03;33.30;;;5.30;85.30;;;;;;5027118;28;20026;-94
2021/03/08 09:00:42;;;;;;;59.78;31.30;;;5.40;85.10;;;;;;5034712;28;20053;-95
2021/03/08 09:03:17;;;;;;;57.65;30.25;;;5.40;85.00;;;;;;5034369;28;20547;-96
2021/03/08 09:05:42;;;;;;;65.07;33.45;;;5.50;84.40;;;;;;5032035;28;20018;-93
2021/03/08 09:08:30;;;;;;;64.28;32.95;;;5.60;84.60;;;;;;5036236;28;20025;-93
2021/03/08 09:10:57;;;;;;;57.03;30.88;;;5.60;84.30;;;;;;5054162;28;20079;-94
2021/03/08 09:13:26;;;;;;;58.38;31.38;;;5.70;84.20;;;;;;5030333;28;20021;-93
2021/03/08 09:15:51;;;;;;;60.30;31.35;;;5.70;84.00;;;;;;5036456;28;20026;-93
2021/03/08 09:18:32;;;;;;;62.90;31.27;;;5.90;84.10;;;;;;5036920;28;20052;-93
2021/03/08 09:21:18;;;;;;;59.47;30.65;;;5.90;83.80;;;;;;5042197;28;20037;-94
2021/03/08 09:23:44;;;;;;;58.47;31.42;;;6.00;83.50;;;;;;5031842;28;20107;-95
2021/03/08 09:26:09;;;;;;;64.80;32.35;;;6.00;83.00;;;;;;5039057;28;20504;-94
2021/03/08 09:28:44;;;;;;;54.28;30.45;;;6.10;83.00;;;;;;5026543;28;20033;-95
2021/03/08 09:31:18;;;;;;;61.03;31.98;;;6.10;82.90;;;;;;5031462;28;20048;-94
2021/03/08 09:33:46;;;;;;;55.65;28.75;;;6.10;82.70;;;;;;5017644;28;20120;-94
2021/03/08 09:36:12;;;;;;;62.60;29.73;;;6.20;82.60;;;;;;5017840;28;20022;-95
2021/03/08 09:38:38;;;;;;;58.28;29.23;;;6.20;82.30;;;;;;5030677;28;20038;-93
2021/03/08 09:41:04;;;;;;;54.20;31.33;;;6.30;82.20;;;;;;5024652;28;20022;-95
2021/03/08 09:43:35;;;;;;;52.42;28.90;;;6.30;81.40;;;;;;5032786;28;20079;-95
2021/03/08 09:46:11;;;;;;;52.05;29.08;;;6.40;81.70;;;;;;5032674;28;20413;-96
2021/03/08 09:48:43;;;;;;;54.15;28.85;;;6.50;81.50;;;;;;5037247;28;20029;-94
2021/03/08 09:51:10;;;;;;;49.83;27.10;;;6.60;80.90;;;;;;5032885;28;20033;-93
2021/03/08 09:53:39;;;;;;;45.55;27.25;;;6.70;80.90;;;;;;5030429;28;20029;-94
2021/03/08 09:56:09;;;;;;;55.28;30.13;;;6.70;80.50;;;;;;5037054;28;20036;-94
2021/03/08 09:58:35;;;;;;;53.08;28.80;;;6.70;80.30;;;;;;5035777;28;20032;-94
2021/03/08 10:01:14;;;;;;;53.42;29.05;;;6.80;80.20;;;;;;5025639;28;20026;-92
2021/03/08 10:03:39;;;;;;;54.60;29.40;;;6.90;79.70;;;;;;5034594;28;20041;-93
2021/03/08 10:06:05;;;;;;;50.60;28.10;;;6.90;78.80;;;;;;5029041;28;20025;-94
2021/03/08 10:08:31;;;;;;;50.30;27.67;;;6.90;78.70;;;;;;5037050;28;20025;-93
2021/03/08 10:10:58;;;;;;;48.15;27.75;;;7.00;79.00;;;;;;5021085;28;20026;-92
2021/03/08 10:13:25;;;;;;;49.85;27.73;;;7.00;78.50;;;;;;5034237;28;20025;-94
2021/03/08 10:15:52;;;;;;;52.92;28.20;;;7.00;78.70;;;;;;5053816;28;20477;-94
2021/03/08 10:18:37;;;;;;;49.63;26.55;;;7.00;78.60;;;;;;5025895;28;20037;-93
2021/03/08 10:21:06;;;;;;;50.05;26.88;;;7.10;78.70;;;;;;5014990;28;20544;-93
2021/03/08 10:23:36;;;;;;;51.45;27.88;;;7.20;78.50;;;;;;5028333;28;20026;-88
2021/03/08 10:26:22;;;;;;;50.10;27.33;;;7.30;78.10;;;;;;5029117;28;20014;-93
2021/03/08 10:28:50;;;;;;;48.33;27.33;;;7.40;78.20;;;;;;5030130;28;20041;-93
2021/03/08 10:31:21;;;;;;;44.05;26.00;;;7.40;77.40;;;;;;5028902;28;20528;-93
2021/03/08 10:33:52;;;;;;;49.00;26.60;;;7.40;77.40;;;;;;5036076;28;20021;-94
2021/03/08 10:36:20;;;;;;;50.05;26.98;;;7.50;76.90;;;;;;5036082;28;20032;-93
2021/03/08 10:39:02;;;;;;;42.80;23.85;;;7.40;76.00;;;;;;5036635;28;20034;-92
2021/03/08 10:41:30;;;;;;;46.55;24.63;;;7.40;76.40;;;;;;5031477;28;20025;-93
2021/03/08 10:43:57;;;;;;;52.33;27.30;;;7.30;76.70;;;;;;5032837;28;20038;-94
2021/03/08 10:46:33;;;;;;;48.08;27.23;;;7.30;76.30;;;;;;5018501;28;20038;-94
2021/03/08 10:49:03;;;;;;;48.92;25.80;;;7.40;76.30;;;;;;5014254;28;20088;-94
2021/03/08 10:51:30;;;;;;;40.95;23.63;;;7.40;76.30;;;;;;5022056;28;20029;-93
2021/03/08 10:53:58;;;;;;;47.13;26.33;;;7.30;76.10;;;;;;5028505;28;20018;-94
2021/03/08 10:56:25;;;;;;;48.28;25.98;;;7.40;76.20;;;;;;5031838;28;20034;-94
2021/03/08 10:58:51;;;;;;;47.60;26.33;;;7.40;75.90;;;;;;5033569;28;20025;-93
2021/03/08 11:01:17;;;;;;;45.75;26.58;;;7.40;75.70;;;;;;5034135;28;20040;-93
2021/03/08 11:03:43;;;;;;;45.13;26.05;;;7.50;76.00;;;;;;5034134;28;20033;-94
2021/03/08 11:06:10;;;;;;;45.80;25.42;;;7.60;75.80;;;;;;5025652;28;20490;-93
2021/03/08 11:08:39;;;;;;;40.03;24.15;;;7.70;75.70;;;;;;5016268;28;20029;-95
2021/03/08 11:11:19;;;;;;;41.25;23.80;;;7.70;75.10;;;;;;5031225;28;20029;-93
2021/03/08 11:13:45;;;;;;;40.55;23.88;;;7.70;75.00;;;;;;5031989;28;20026;-94
2021/03/08 11:16:13;;;;;;;43.20;23.75;;;7.90;75.10;;;;;;5016615;28;20029;-94
2021/03/08 11:18:39;;;;;;;40.65;23.52;;;8.00;74.90;;;;;;5020794;28;20032;-94
2021/03/08 11:21:21;;;;;;;42.25;23.73;;;8.00;74.70;;;;;;5031384;28;20036;-94
2021/03/08 11:23:47;;;;;;;42.70;24.35;;;8.10;74.00;;;;;;5024921;28;20034;-93
2021/03/08 11:26:13;;;;;;;44.38;23.42;;;8.30;73.70;;;;;;5030376;28;20025;-93
2021/03/08 11:28:40;;;;;;;37.65;22.05;;;8.30;73.00;;;;;;5019291;28;20555;-94
2021/03/08 11:31:06;;;;;;;36.88;20.85;;;8.40;73.30;;;;;;5032881;28;20041;-95
2021/03/08 11:33:35;;;;;;;34.28;20.58;;;8.50;72.70;;;;;;5030428;28;20029;-94
2021/03/08 11:36:01;;;;;;;37.80;21.45;;;8.40;72.50;;;;;;5033329;28;20087;-93
2021/03/08 11:38:27;;;;;;;38.08;21.60;;;8.50;72.30;;;;;;5032449;28;20026;-94
2021/03/08 11:40:53;;;;;;;37.20;20.85;;;8.50;71.70;;;;;;5033243;28;20033;-94
2021/03/08 11:43:22;;;;;;;38.55;21.25;;;8.40;71.40;;;;;;5028423;28;20017;-93
2021/03/08 11:45:48;;;;;;;37.53;20.75;;;8.30;71.50;;;;;;5031866;28;20037;-93
2021/03/08 11:48:14;;;;;;;35.58;20.77;;;8.40;71.60;;;;;;5019437;28;20026;-93
2021/03/08 11:50:40;;;;;;;32.45;18.75;;;8.50;71.10;;;;;;5032347;28;20033;-93
2021/03/08 11:53:06;;;;;;;33.13;19.50;;;8.60;70.50;;;;;;5033804;28;20117;-94
2021/03/08 11:55:32;;;;;;;31.65;18.92;;;8.60;69.90;;;;;;5023371;28;20502;-95
2021/03/08 11:57:57;;;;;;;35.20;18.10;;;8.60;70.50;;;;;;5015474;28;20022;-93
2021/03/08 12:00:25;;;;;;;38.17;19.13;;;8.70;70.00;;;;;;5031307;28;20037;-94
2021/03/08 12:02:51;;;;;;;36.53;19.23;;;8.70;69.60;;;;;;5030483;28;20026;-94
2021/03/08 12:05:17;;;;;;;37.13;20.52;;;8.70;69.90;;;;;;5016027;28;20030;-94
2021/03/08 12:07:43;;;;;;;35.38;20.02;;;8.90;70.70;;;;;;5016273;28;20026;-93
2021/03/08 12:10:11;;;;;;;26.95;17.40;;;9.20;69.60;;;;;;5032903;28;20120;-93
2021/03/08 12:12:37;;;;;;;30.23;17.08;;;9.30;68.80;;;;;;5023970;28;20025;-94
2021/03/08 12:15:05;;;;;;;31.73;17.70;;;9.30;68.60;;;;;;5034230;28;20108;-94
2021/03/08 12:17:30;;;;;;;31.00;18.00;;;9.30;68.20;;;;;;5035110;28;20485;-94
2021/03/08 12:19:56;;;;;;;27.08;16.33;;;9.30;68.10;;;;;;5035034;28;20014;-93
2021/03/08 12:22:21;;;;;;;34.50;18.35;;;9.50;67.60;;;;;;5033171;28;20429;-94
2021/03/08 12:24:47;;;;;;;30.52;17.25;;;9.60;67.30;;;;;;5034755;28;20085;-94
2021/03/08 12:27:13;;;;;;;26.77;15.73;;;9.60;67.20;;;;;;5034752;28;20036;-94
2021/03/08 12:29:38;;;;;;;29.88;16.00;;;9.60;67.20;;;;;;5034688;28;20409;-94
2021/03/08 12:32:08;;;;;;;28.60;15.65;;;9.50;66.40;;;;;;5034929;28;20021;-94
2021/03/08 12:34:33;;;;;;;29.23;16.75;;;9.40;66.50;;;;;;5034140;28;20029;-94
2021/03/08 12:36:59;;;;;;;30.23;16.30;;;9.30;67.00;;;;;;5034100;28;20021;-94
2021/03/08 12:39:25;;;;;;;27.67;15.65;;;9.40;67.90;;;;;;5023414;28;20033;-95
2021/03/08 12:41:50;;;;;;;27.55;15.70;;;9.40;66.00;;;;;;5033422;28;20025;-94
2021/03/08 12:44:16;;;;;;;30.42;17.80;;;9.30;66.50;;;;;;5025599;28;20490;-93
2021/03/08 12:46:42;;;;;;;26.13;14.88;;;9.20;66.90;;;;;;5028880;28;20784;-94
2021/03/08 12:49:07;;;;;;;25.83;14.30;;;9.30;67.00;;;;;;5034990;28;20038;-93